createdAt,value
2022-10-31T00:01:37.800Z,38.33
2022-10-31T00:04:06.092Z,38.07
2022-10-31T00:06:33.251Z,33.75
2022-10-31T00:09:03.037Z,38.92
2022-10-31T00:11:30.213Z,38.70
2022-10-31T00:13:59.476Z,36.53
2022-10-31T00:16:27.082Z,34.22
2022-10-31T00:18:57.093Z,42.45
2022-10-31T00:21:25.727Z,35.90
2022-10-31T00:23:52.837Z,42.83
2022-10-31T00:26:20.621Z,43.25
2022-10-31T00:28:47.814Z,33.90
2022-10-31T00:31:15.404Z,38.65
2022-10-31T00:33:42.737Z,36.72
2022-10-31T00:36:15.427Z,30.33
2022-10-31T00:38:43.886Z,39.00
2022-10-31T00:41:12.808Z,44.42
2022-10-31T00:43:39.586Z,44.15
2022-10-31T00:46:06.451Z,37.05
2022-10-31T00:48:33.699Z,36.80
2022-10-31T00:51:00.521Z,47.78
2022-10-31T00:53:27.314Z,55.17
2022-10-31T00:55:54.178Z,46.42
2022-10-31T00:58:20.922Z,48.88
2022-10-31T01:00:56.469Z,45.20
2022-10-31T01:03:30.308Z,43.17
2022-10-31T01:06:10.801Z,47.17
2022-10-31T01:08:39.009Z,39.35
2022-10-31T01:11:21.101Z,44.55
2022-10-31T01:13:49.185Z,41.67
2022-10-31T01:16:20.986Z,39.60
2022-10-31T01:18:48.374Z,43.08
2022-10-31T01:21:27.604Z,36.75
2022-10-31T01:23:56.412Z,47.28
2022-10-31T01:26:27.261Z,33.63
2022-10-31T01:29:04.850Z,43.97
2022-10-31T01:31:37.810Z,38.95
2022-10-31T01:34:05.535Z,41.38
2022-10-31T01:36:36.446Z,37.72
2022-10-31T01:39:10.094Z,44.08
2022-10-31T01:41:41.625Z,40.75
2022-10-31T01:44:17.868Z,40.08
2022-10-31T01:46:48.180Z,44.50
2022-10-31T01:49:58.947Z,44.67
2022-10-31T01:52:34.259Z,38.03
2022-10-31T01:55:09.119Z,46.35
2022-10-31T01:57:39.174Z,42.88
2022-10-31T02:00:11.114Z,36.88
2022-10-31T02:02:37.987Z,38.70
2022-10-31T02:05:11.191Z,34.38
2022-10-31T02:07:47.248Z,45.88
2022-10-31T02:10:14.322Z,37.55
2022-10-31T02:12:42.321Z,45.50
2022-10-31T02:15:10.659Z,45.42
2022-10-31T02:17:37.646Z,48.95
2022-10-31T02:20:20.004Z,35.90
2022-10-31T02:23:52.234Z,39.80
2022-10-31T02:26:47.551Z,44.05
2022-10-31T02:29:54.472Z,44.78
2022-10-31T02:32:45.240Z,54.85
2022-10-31T02:35:43.849Z,42.08
2022-10-31T02:38:45.887Z,43.10
2022-10-31T02:41:23.580Z,46.83
2022-10-31T02:44:05.498Z,45.78
2022-10-31T02:46:56.184Z,42.83
2022-10-31T02:49:31.465Z,41.30
2022-10-31T02:51:58.237Z,48.22
2022-10-31T02:54:28.738Z,44.70
2022-10-31T02:57:03.426Z,38.45
2022-10-31T02:59:33.554Z,39.17
2022-10-31T03:02:15.085Z,40.83
2022-10-31T03:05:00.277Z,40.88
2022-10-31T03:07:56.331Z,40.85
2022-10-31T03:10:49.502Z,49.50
2022-10-31T03:13:51.259Z,35.40
2022-10-31T03:16:46.409Z,39.75
2022-10-31T03:19:21.611Z,42.67
2022-10-31T03:21:59.133Z,28.25
2022-10-31T03:24:32.174Z,36.88
2022-10-31T03:27:01.892Z,38.85
2022-10-31T03:29:34.736Z,32.05
2022-10-31T03:32:12.063Z,33.60
2022-10-31T03:34:43.166Z,35.10
2022-10-31T03:37:16.131Z,32.10
2022-10-31T03:39:45.850Z,46.72
2022-10-31T03:42:24.363Z,35.17
2022-10-31T03:45:17.572Z,39.80
2022-10-31T03:47:45.503Z,44.40
2022-10-31T03:50:15.688Z,34.78
2022-10-31T03:53:10.262Z,37.63
2022-10-31T03:56:07.112Z,36.80
2022-10-31T03:58:41.142Z,37.60
2022-10-31T04:01:13.294Z,30.13
2022-10-31T04:03:40.693Z,35.83
2022-10-31T04:06:12.139Z,42.72
2022-10-31T04:08:47.079Z,31.40
2022-10-31T04:11:16.576Z,32.30
2022-10-31T04:13:47.273Z,31.98
2022-10-31T04:16:17.145Z,38.92
2022-10-31T04:18:44.930Z,29.25
2022-10-31T04:21:11.820Z,35.10
2022-10-31T04:23:39.001Z,37.33
2022-10-31T04:26:05.991Z,36.90
2022-10-31T04:28:35.006Z,39.00
2022-10-31T04:31:02.019Z,38.10
2022-10-31T04:33:28.870Z,31.30
2022-10-31T04:35:56.138Z,30.35
2022-10-31T04:38:22.931Z,35.53
2022-10-31T04:40:49.736Z,34.97
2022-10-31T04:43:16.815Z,35.10
2022-10-31T04:45:43.606Z,32.00
2022-10-31T04:48:10.357Z,34.67
2022-10-31T04:50:37.424Z,28.20
2022-10-31T04:53:04.243Z,33.97
2022-10-31T04:55:31.514Z,33.28
2022-10-31T04:57:59.119Z,31.58
2022-10-31T05:00:26.188Z,35.60
2022-10-31T05:02:59.019Z,40.28
2022-10-31T05:05:32.245Z,33.50
2022-10-31T05:07:59.056Z,36.15
2022-10-31T05:10:29.713Z,40.67
2022-10-31T05:13:03.033Z,33.45
2022-10-31T05:15:31.435Z,38.80
2022-10-31T05:17:58.851Z,30.60
2022-10-31T05:20:29.534Z,29.50
2022-10-31T05:22:58.300Z,26.58
2022-10-31T05:25:28.849Z,35.65
2022-10-31T05:27:57.123Z,30.20
2022-10-31T05:30:28.976Z,26.42
2022-10-31T05:32:56.186Z,28.17
2022-10-31T05:35:29.434Z,42.30
2022-10-31T05:37:56.690Z,31.33
2022-10-31T05:40:23.578Z,36.60
2022-10-31T05:42:54.124Z,41.40
2022-10-31T05:45:23.089Z,27.73
2022-10-31T05:47:58.708Z,26.77
2022-10-31T05:50:29.108Z,31.70
2022-10-31T05:53:00.194Z,32.72
2022-10-31T05:55:28.358Z,33.00
2022-10-31T05:57:56.175Z,35.92
2022-10-31T06:00:24.460Z,34.20
2022-10-31T06:02:59.276Z,29.90
2022-10-31T06:05:26.094Z,38.15
2022-10-31T06:07:52.861Z,31.90
2022-10-31T06:10:21.956Z,27.80
2022-10-31T06:12:49.309Z,27.70
2022-10-31T06:15:23.297Z,37.55
2022-10-31T06:18:05.965Z,33.42
2022-10-31T06:20:34.079Z,26.13
2022-10-31T06:23:02.153Z,40.47
2022-10-31T06:25:29.669Z,27.23
2022-10-31T06:27:56.932Z,31.75
2022-10-31T06:30:23.769Z,30.75
2022-10-31T06:32:50.887Z,25.25
2022-10-31T06:35:18.305Z,35.58
2022-10-31T06:37:55.445Z,34.50
2022-10-31T06:40:22.660Z,26.70
2022-10-31T06:42:58.990Z,30.23
2022-10-31T06:45:26.207Z,27.85
2022-10-31T06:48:22.577Z,28.17
2022-10-31T06:50:41.749Z,32.90
2022-10-31T06:55:58.230Z,33.65
2022-10-31T06:58:25.313Z,29.90
2022-10-31T07:00:52.099Z,30.35
2022-10-31T07:03:19.250Z,37.28
2022-10-31T07:05:46.079Z,25.48
2022-10-31T07:08:15.000Z,34.00
2022-10-31T07:10:44.603Z,23.08
2022-10-31T07:13:14.589Z,24.80
2022-10-31T07:15:44.189Z,24.45
2022-10-31T07:18:13.551Z,31.52
2022-10-31T07:20:40.336Z,26.50
2022-10-31T07:23:07.282Z,21.73
2022-10-31T07:25:34.390Z,22.60
2022-10-31T07:28:01.481Z,28.40
2022-10-31T07:30:28.809Z,29.00
2022-10-31T07:32:56.559Z,31.13
2022-10-31T07:35:26.836Z,22.23
2022-10-31T07:37:54.289Z,23.67
2022-10-31T07:40:22.229Z,21.58
2022-10-31T07:42:52.410Z,20.30
2022-10-31T07:45:21.686Z,26.20
2022-10-31T07:47:51.719Z,28.60
2022-10-31T07:50:25.030Z,30.42
2022-10-31T07:53:13.873Z,29.20
2022-10-31T07:55:41.274Z,25.35
2022-10-31T07:58:15.355Z,30.70
2022-10-31T08:00:46.231Z,23.95
2022-10-31T08:03:17.549Z,30.45
2022-10-31T08:05:46.995Z,26.42
2022-10-31T08:08:15.216Z,20.85
2022-10-31T08:10:42.421Z,24.63
2022-10-31T08:13:15.242Z,24.70
2022-10-31T08:15:43.160Z,28.13
2022-10-31T08:18:14.922Z,21.83
2022-10-31T08:20:45.198Z,24.45
2022-10-31T08:23:13.528Z,27.20
2022-10-31T08:25:41.289Z,22.58
2022-10-31T08:28:10.168Z,23.08
2022-10-31T08:30:39.004Z,25.23
2022-10-31T08:33:16.323Z,31.38
2022-10-31T08:35:43.168Z,25.98
2022-10-31T08:38:12.472Z,19.10
2022-10-31T08:40:40.070Z,21.55
2022-10-31T08:43:12.984Z,23.45
2022-10-31T08:45:40.493Z,23.60
2022-10-31T08:48:15.427Z,24.83
2022-10-31T08:50:43.812Z,24.20
2022-10-31T08:53:14.954Z,24.55
2022-10-31T08:55:43.755Z,26.77
2022-10-31T08:58:14.017Z,23.85
2022-10-31T09:00:41.641Z,22.05
2022-10-31T09:03:17.071Z,25.33
2022-10-31T09:05:44.889Z,22.83
2022-10-31T09:08:15.937Z,22.17
2022-10-31T09:10:44.752Z,32.08
2022-10-31T09:13:15.309Z,25.42
2022-10-31T09:15:45.038Z,17.67
2022-10-31T09:18:13.680Z,19.60
2022-10-31T09:20:42.333Z,22.33
2022-10-31T09:23:21.941Z,29.05
2022-10-31T09:25:51.610Z,24.38
2022-10-31T09:28:22.712Z,23.90
2022-10-31T09:30:54.844Z,32.15
2022-10-31T09:33:22.191Z,23.92
2022-10-31T09:35:49.278Z,22.38
2022-10-31T09:38:24.546Z,20.45
2022-10-31T09:41:22.231Z,15.70
2022-10-31T09:44:10.307Z,20.65
2022-10-31T09:47:11.013Z,27.33
2022-10-31T09:50:03.904Z,21.10
2022-10-31T09:52:34.910Z,28.50
2022-10-31T09:55:29.221Z,19.23
2022-10-31T09:57:56.167Z,17.45
2022-10-31T10:00:23.781Z,19.08
2022-10-31T10:03:23.376Z,21.67
2022-10-31T10:06:00.990Z,26.23
2022-10-31T10:08:32.890Z,18.52
2022-10-31T10:11:35.002Z,18.88
2022-10-31T10:14:34.919Z,22.17
2022-10-31T10:17:28.203Z,19.88
2022-10-31T10:20:07.112Z,24.02
2022-10-31T10:22:54.216Z,21.33
2022-10-31T10:25:24.671Z,18.38
2022-10-31T10:28:19.150Z,30.42
2022-10-31T10:30:55.982Z,25.52
2022-10-31T10:33:34.410Z,16.33
2022-10-31T10:36:06.856Z,20.20
2022-10-31T10:38:42.990Z,23.42
2022-10-31T10:41:21.540Z,19.92
2022-10-31T10:43:57.190Z,21.98
2022-10-31T10:46:42.426Z,18.48
2022-10-31T10:49:20.249Z,22.67
2022-10-31T10:55:01.110Z,21.38
2022-10-31T10:57:46.134Z,16.20
2022-10-31T11:00:29.029Z,20.70
2022-10-31T11:02:56.711Z,14.10
2022-10-31T11:05:51.653Z,21.30
2022-10-31T11:08:34.377Z,17.38
2022-10-31T11:11:21.174Z,18.88
2022-10-31T11:13:50.967Z,16.75
2022-10-31T11:16:41.561Z,16.50
2022-10-31T11:19:23.209Z,12.05
2022-10-31T11:21:52.774Z,14.95
2022-10-31T11:24:27.275Z,20.73
2022-10-31T11:27:14.717Z,19.27
2022-10-31T11:29:41.486Z,20.08
2022-10-31T11:32:23.221Z,17.23
2022-10-31T11:34:55.697Z,14.05
2022-10-31T11:37:44.367Z,15.50
2022-10-31T11:40:28.631Z,15.60
2022-10-31T11:42:58.709Z,14.82
2022-10-31T11:45:25.420Z,19.80
2022-10-31T11:47:59.832Z,15.85
2022-10-31T11:50:39.590Z,16.20
2022-10-31T11:53:19.317Z,17.63
2022-10-31T11:56:04.927Z,16.25
2022-10-31T11:58:32.368Z,13.65
2022-10-31T12:00:59.377Z,21.05
2022-10-31T12:03:41.413Z,14.32
2022-10-31T12:06:21.994Z,16.75
2022-10-31T12:08:49.270Z,13.95
2022-10-31T12:11:56.709Z,15.02
2022-10-31T12:15:10.205Z,12.27
2022-10-31T12:18:19.519Z,19.58
2022-10-31T12:20:56.440Z,13.38
2022-10-31T12:23:29.266Z,14.98
2022-10-31T12:26:15.532Z,16.05
2022-10-31T12:29:10.168Z,20.85
2022-10-31T12:31:55.488Z,14.27
2022-10-31T12:35:01.825Z,14.95
2022-10-31T12:41:11.670Z,17.73
2022-10-31T12:44:06.322Z,15.57
2022-10-31T12:47:00.395Z,10.15
2022-10-31T12:49:51.722Z,15.07
2022-10-31T12:52:36.107Z,14.82
2022-10-31T12:55:23.448Z,14.45
2022-10-31T12:58:03.091Z,14.93
2022-10-31T13:00:34.535Z,15.25
2022-10-31T13:03:25.605Z,16.98
2022-10-31T13:06:10.868Z,19.75
2022-10-31T13:08:52.452Z,17.20
2022-10-31T13:11:38.443Z,18.13
2022-10-31T13:14:16.308Z,13.00
2022-10-31T13:16:48.658Z,12.05
2022-10-31T13:19:25.333Z,15.88
2022-10-31T13:22:01.464Z,14.40
2022-10-31T13:24:40.704Z,13.18
2022-10-31T13:27:31.127Z,16.20
2022-10-31T13:30:22.164Z,15.23
2022-10-31T13:33:04.553Z,16.85
2022-10-31T13:35:54.920Z,14.18
2022-10-31T13:38:58.692Z,13.75
2022-10-31T13:41:44.938Z,15.73
2022-10-31T13:44:35.797Z,9.82
2022-10-31T13:47:23.251Z,15.00
2022-10-31T13:49:50.170Z,14.77
2022-10-31T13:52:25.790Z,8.88
2022-10-31T13:54:58.016Z,15.35
2022-10-31T13:57:43.494Z,12.00
2022-10-31T14:00:22.605Z,15.07
2022-10-31T14:02:53.377Z,8.30
2022-10-31T14:05:27.838Z,13.65
2022-10-31T14:08:02.129Z,10.48
2022-10-31T14:10:38.546Z,9.55
2022-10-31T14:13:42.585Z,13.43
2022-10-31T14:16:33.941Z,11.07
2022-10-31T14:19:15.552Z,8.43
2022-10-31T14:21:48.675Z,10.07
2022-10-31T14:24:24.693Z,8.90
2022-10-31T14:27:03.141Z,9.07
2022-10-31T14:29:36.388Z,14.77
2022-10-31T14:32:27.985Z,11.95
2022-10-31T14:34:59.065Z,13.82
2022-10-31T14:38:06.420Z,10.70
2022-10-31T14:41:22.785Z,9.25
2022-10-31T14:44:19.925Z,13.85
2022-10-31T14:46:55.780Z,14.43
2022-10-31T14:49:40.783Z,9.77
2022-10-31T14:52:09.961Z,19.13
2022-10-31T14:54:47.126Z,12.55
2022-10-31T14:57:25.117Z,13.52
2022-10-31T15:00:08.680Z,11.90
2022-10-31T15:02:46.481Z,10.80
2022-10-31T15:05:14.279Z,14.35
2022-10-31T15:07:59.307Z,11.88
2022-10-31T15:10:37.703Z,10.98
2022-10-31T15:13:22.656Z,11.23
2022-10-31T15:15:53.056Z,8.38
2022-10-31T15:18:27.457Z,11.32
2022-10-31T15:20:56.870Z,13.00
2022-10-31T15:23:30.168Z,11.82
2022-10-31T15:26:06.096Z,17.08
2022-10-31T15:28:33.085Z,13.07
2022-10-31T15:31:02.408Z,13.15
2022-10-31T15:33:50.869Z,11.43
2022-10-31T15:36:29.252Z,13.15
2022-10-31T15:38:59.007Z,13.30
2022-10-31T15:41:32.505Z,8.68
2022-10-31T15:44:11.859Z,13.60
2022-10-31T15:46:38.750Z,10.95
2022-10-31T15:49:19.690Z,13.13
2022-10-31T15:51:50.485Z,14.68
2022-10-31T15:54:20.514Z,13.55
2022-10-31T15:56:47.363Z,12.32
2022-10-31T15:59:27.406Z,14.60
2022-10-31T16:02:03.637Z,8.80
2022-10-31T16:04:30.824Z,11.60
2022-10-31T16:07:14.694Z,10.27
2022-10-31T16:09:57.974Z,12.73
2022-10-31T16:12:35.312Z,10.23
2022-10-31T16:15:03.804Z,9.82
2022-10-31T16:17:31.007Z,10.18
2022-10-31T16:20:00.295Z,11.25
2022-10-31T16:22:39.085Z,12.43
2022-10-31T16:25:15.320Z,11.05
2022-10-31T16:27:54.045Z,14.50
2022-10-31T16:30:32.179Z,12.68
2022-10-31T16:33:02.817Z,15.05
2022-10-31T16:35:37.905Z,10.43
2022-10-31T16:38:06.248Z,14.95
2022-10-31T16:40:34.070Z,13.77
2022-10-31T16:43:02.472Z,14.95
2022-10-31T16:45:33.282Z,16.33
2022-10-31T16:48:07.478Z,12.02
2022-10-31T16:50:34.628Z,10.50
2022-10-31T16:53:13.546Z,12.68
2022-10-31T16:56:03.634Z,17.55
2022-10-31T16:58:36.271Z,15.20
2022-10-31T17:01:06.414Z,12.30
2022-10-31T17:03:33.485Z,14.20
2022-10-31T17:06:00.426Z,20.00
2022-10-31T17:08:27.430Z,18.27
2022-10-31T17:10:59.469Z,14.40
2022-10-31T17:13:32.518Z,14.05
2022-10-31T17:16:04.549Z,13.13
2022-10-31T17:18:31.318Z,15.70
2022-10-31T17:21:00.805Z,16.58
2022-10-31T17:23:28.954Z,16.45
2022-10-31T17:25:56.978Z,13.70
2022-10-31T17:28:23.854Z,13.88
2022-10-31T17:30:50.777Z,15.20
2022-10-31T17:33:17.830Z,12.40
2022-10-31T17:35:45.406Z,16.42
2022-10-31T17:38:13.269Z,12.65
2022-10-31T17:40:42.401Z,14.30
2022-10-31T17:43:11.225Z,16.67
2022-10-31T17:45:42.621Z,19.15
2022-10-31T17:48:13.163Z,14.00
2022-10-31T17:50:40.627Z,16.05
2022-10-31T17:53:07.655Z,12.77
2022-10-31T17:55:37.375Z,17.88
2022-10-31T17:58:07.366Z,17.98
2022-10-31T18:00:34.546Z,13.52
2022-10-31T18:03:04.210Z,15.23
2022-10-31T18:05:31.957Z,11.20
2022-10-31T18:08:02.485Z,15.00
2022-10-31T18:10:30.773Z,18.77
2022-10-31T18:12:57.645Z,14.10
2022-10-31T18:15:24.503Z,19.15
2022-10-31T18:17:51.267Z,18.08
2022-10-31T18:20:18.156Z,20.02
2022-10-31T18:22:45.294Z,13.85
2022-10-31T18:25:12.081Z,11.25
2022-10-31T18:27:38.998Z,24.83
2022-10-31T18:30:06.776Z,10.68
2022-10-31T18:32:33.991Z,20.75
2022-10-31T18:35:00.945Z,14.05
2022-10-31T18:37:28.394Z,15.48
2022-10-31T18:39:55.295Z,15.57
2022-10-31T18:42:22.078Z,15.07
2022-10-31T18:44:48.822Z,15.98
2022-10-31T18:47:15.878Z,17.20
2022-10-31T18:49:42.826Z,15.02
2022-10-31T18:52:09.584Z,15.43
2022-10-31T18:54:36.484Z,15.32
2022-10-31T18:57:03.279Z,13.90
2022-10-31T18:59:30.081Z,17.58
2022-10-31T19:01:57.351Z,13.95
2022-10-31T19:04:24.321Z,16.02
2022-10-31T19:06:51.058Z,13.25
2022-10-31T19:09:17.828Z,13.38
2022-10-31T19:11:44.788Z,17.20
2022-10-31T19:14:15.001Z,18.85
2022-10-31T19:16:42.502Z,16.00
2022-10-31T19:19:09.861Z,15.45
2022-10-31T19:21:36.633Z,12.77
2022-10-31T19:24:04.124Z,13.15
2022-10-31T19:26:34.829Z,10.93
2022-10-31T19:29:01.900Z,15.80
2022-10-31T19:31:28.707Z,42.28
2022-10-31T19:33:55.451Z,22.10
2022-10-31T19:36:23.146Z,18.50
2022-10-31T19:38:52.522Z,13.85
2022-10-31T19:41:26.282Z,13.50
2022-10-31T19:43:54.274Z,13.35
2022-10-31T19:46:40.401Z,13.18
2022-10-31T19:49:11.999Z,8.65
2022-10-31T19:51:38.911Z,11.43
2022-10-31T19:54:07.134Z,10.85
2022-10-31T19:56:35.043Z,11.75
2022-10-31T19:59:04.161Z,10.88
2022-10-31T20:01:31.333Z,13.27
2022-10-31T20:03:59.204Z,14.50
2022-10-31T20:06:36.885Z,18.83
2022-10-31T20:09:13.702Z,11.98
2022-10-31T20:11:42.400Z,12.45
2022-10-31T20:14:13.548Z,12.80
2022-10-31T20:16:40.375Z,10.82
2022-10-31T20:19:07.460Z,11.10
2022-10-31T20:21:39.163Z,9.82
2022-10-31T20:24:09.692Z,10.90
2022-10-31T20:26:39.497Z,8.68
2022-10-31T20:29:07.187Z,8.98
2022-10-31T20:31:36.704Z,7.72
2022-10-31T20:34:03.953Z,13.00
2022-10-31T20:36:31.703Z,10.85
2022-10-31T20:38:59.027Z,12.00
2022-10-31T20:41:26.579Z,12.63
2022-10-31T20:43:53.750Z,12.68
2022-10-31T20:46:27.030Z,13.80
2022-10-31T20:48:54.667Z,10.90
2022-10-31T20:51:25.692Z,10.55
2022-10-31T20:53:55.872Z,13.32
2022-10-31T20:56:25.281Z,11.82
2022-10-31T20:58:54.524Z,17.80
2022-10-31T21:01:31.640Z,18.00
2022-10-31T21:03:59.219Z,21.30
2022-10-31T21:06:27.581Z,18.80
2022-10-31T21:08:54.877Z,23.92
2022-10-31T21:11:25.078Z,24.92
2022-10-31T21:13:52.783Z,23.83
2022-10-31T21:16:23.834Z,22.80
2022-10-31T21:18:51.472Z,22.50
2022-10-31T21:21:26.274Z,27.02
2022-10-31T21:24:01.959Z,28.13
2022-10-31T21:26:33.554Z,34.90
2022-10-31T21:29:01.096Z,31.27
2022-10-31T21:31:28.613Z,29.83
2022-10-31T21:33:55.884Z,29.45
2022-10-31T21:36:22.740Z,26.33
2022-10-31T21:38:51.567Z,31.23
2022-10-31T21:41:19.873Z,35.70
2022-10-31T21:43:50.137Z,32.13
2022-10-31T21:46:20.522Z,39.92
2022-10-31T21:48:48.328Z,34.42
2022-10-31T21:51:27.963Z,31.40
2022-10-31T21:54:14.200Z,30.30
2022-10-31T21:56:41.767Z,34.72
2022-10-31T21:59:08.710Z,34.97
2022-10-31T22:01:36.664Z,35.65
2022-10-31T22:04:04.504Z,39.75
2022-10-31T22:06:32.423Z,41.05
2022-10-31T22:09:01.784Z,42.65
2022-10-31T22:11:29.654Z,34.95
2022-10-31T22:13:59.290Z,40.30
2022-10-31T22:16:29.066Z,36.90
2022-10-31T22:18:59.749Z,42.25
2022-10-31T22:21:29.197Z,42.50
2022-10-31T22:24:01.975Z,39.30
2022-10-31T22:26:37.892Z,41.25
2022-10-31T22:29:10.383Z,41.00
2022-10-31T22:31:40.898Z,41.08
2022-10-31T22:34:07.900Z,46.45
2022-10-31T22:36:37.969Z,47.15
2022-10-31T22:39:06.559Z,48.55
2022-10-31T22:41:37.332Z,41.75
2022-10-31T22:44:05.760Z,41.90
2022-10-31T22:46:38.869Z,43.55
2022-10-31T22:49:10.895Z,42.30
2022-10-31T22:51:40.087Z,41.33
2022-10-31T22:54:22.184Z,40.15
2022-10-31T22:56:48.978Z,46.20
2022-10-31T22:59:17.497Z,43.60
2022-10-31T23:01:48.520Z,42.80
2022-10-31T23:04:16.818Z,39.53
2022-10-31T23:09:30.340Z,33.58
2022-10-31T23:12:24.829Z,35.00
2022-10-31T23:15:33.516Z,29.20
2022-10-31T23:23:38.939Z,30.50
2022-10-31T23:26:38.405Z,23.33
2022-10-31T23:29:06.105Z,23.40
